Time;durP1;ratioP1;P1;durP2;ratioP2;P2;SDS_P1;SDS_P2;PMS_P1;PMS_P2;Temp;Humidity;BMP_temperature;BMP_pressure;BME280_temperature;BME280_humidity;BME280_pressure;Samples;Min_cycle;Max_cycle;Signal;HPM_P1;HPM_P2
2023/12/05 00:00:36;;;;;;;34.60;19.88;;;;;;;;;;4958393;28;20418;-59
2023/12/05 00:03:02;;;;;;;35.10;20.80;;;;;;;;;;4975309;28;20025;-58
2023/12/05 00:05:27;;;;;;;36.13;19.50;;;;;;;;;;4975350;28;20029;-59
2023/12/05 00:07:53;;;;;;;35.47;20.50;;;;;;;;;;4975386;28;20067;-58
2023/12/05 00:10:19;;;;;;;33.90;20.35;;;;;;;;;;4975231;28;20093;-58
2023/12/05 00:12:44;;;;;;;31.42;19.25;;;;;;;;;;4975219;28;20050;-59
2023/12/05 00:15:10;;;;;;;34.20;20.30;;;;;;;;;;4975136;28;20054;-59
2023/12/05 00:17:35;;;;;;;31.63;20.08;;;;;;;;;;4974165;28;20041;-59
2023/12/05 00:20:00;;;;;;;29.75;17.77;;;;;;;;;;4975745;28;20035;-58
2023/12/05 00:22:27;;;;;;;31.55;19.25;;;;;;;;;;4975414;28;20049;-58
2023/12/05 00:24:52;;;;;;;33.30;21.52;;;;;;;;;;4975844;28;20110;-58
2023/12/05 00:27:18;;;;;;;33.38;20.77;;;;;;;;;;4975341;28;20142;-59
2023/12/05 00:29:43;;;;;;;33.70;20.25;;;;;;;;;;4973878;28;20062;-58
2023/12/05 00:32:10;;;;;;;31.92;19.00;;;;;;;;;;4975174;28;20031;-59
2023/12/05 00:34:35;;;;;;;31.48;18.73;;;;;;;;;;4974233;28;20041;-59
2023/12/05 00:37:09;;;;;;;34.90;19.95;;;;;;;;;;5026416;22;20058;-62
2023/12/05 00:39:35;;;;;;;44.83;25.25;;;;;;;;;;4991394;28;20062;-62
2023/12/05 00:42:01;;;;;;;35.13;20.77;;;;;;;;;;4994358;28;20026;-59
2023/12/05 00:44:29;;;;;;;32.58;20.48;;;;;;;;;;4994490;28;20511;-59
2023/12/05 00:46:55;;;;;;;35.55;20.30;;;;;;;;;;4994439;28;20041;-58
2023/12/05 00:49:22;;;;;;;35.15;20.65;;;;;;;;;;4994783;28;20026;-58
2023/12/05 00:51:47;;;;;;;29.88;18.67;;;;;;;;;;4993720;28;20037;-58
2023/12/05 00:54:13;;;;;;;32.60;20.02;;;;;;;;;;4976009;28;20030;-58
2023/12/05 00:56:38;;;;;;;30.95;19.17;;;;;;;;;;4993505;28;20026;-59
2023/12/05 00:59:04;;;;;;;32.80;19.15;;;;;;;;;;4975217;28;20485;-59
2023/12/05 01:01:29;;;;;;;34.30;19.77;;;;;;;;;;4993057;28;20389;-59
2023/12/05 01:03:56;;;;;;;35.40;20.98;;;;;;;;;;4994594;28;20113;-59
2023/12/05 01:06:25;;;;;;;37.85;20.73;;;;;;;;;;4977149;28;20030;-59
2023/12/05 01:08:50;;;;;;;33.90;20.25;;;;;;;;;;4994486;28;20026;-59
2023/12/05 01:11:16;;;;;;;32.53;20.67;;;;;;;;;;4994826;28;20441;-59
2023/12/05 01:13:41;;;;;;;31.65;18.75;;;;;;;;;;4994354;28;20366;-59
2023/12/05 01:16:07;;;;;;;34.05;19.55;;;;;;;;;;4994800;28;20030;-59
2023/12/05 01:18:32;;;;;;;32.10;19.23;;;;;;;;;;4992999;28;20034;-59
2023/12/05 01:20:58;;;;;;;32.15;19.85;;;;;;;;;;4994591;28;20030;-59
2023/12/05 01:23:23;;;;;;;31.73;18.48;;;;;;;;;;4960721;28;20034;-62
2023/12/05 01:25:48;;;;;;;33.95;18.90;;;;;;;;;;5017754;23;20060;-62
2023/12/05 01:28:14;;;;;;;33.40;20.13;;;;;;;;;;5013468;28;20042;-63
2023/12/05 01:30:41;;;;;;;32.90;20.58;;;;;;;;;;4996323;28;20148;-63
2023/12/05 01:33:06;;;;;;;30.88;20.10;;;;;;;;;;5014078;28;20523;-63
2023/12/05 01:35:32;;;;;;;32.15;20.23;;;;;;;;;;5013625;28;20050;-63
2023/12/05 01:37:57;;;;;;;32.88;20.80;;;;;;;;;;5013559;28;20049;-63
2023/12/05 01:40:23;;;;;;;31.40;19.95;;;;;;;;;;5014648;28;20069;-63
2023/12/05 01:42:48;;;;;;;32.90;18.65;;;;;;;;;;5017218;28;20390;-63
2023/12/05 01:45:13;;;;;;;31.83;18.65;;;;;;;;;;5017197;28;20034;-63
2023/12/05 01:47:40;;;;;;;27.80;16.60;;;;;;;;;;5017416;28;20068;-62
2023/12/05 01:50:09;;;;;;;29.77;17.45;;;;;;;;;;5017313;28;20039;-63
2023/12/05 01:52:35;;;;;;;30.55;17.63;;;;;;;;;;5017061;28;20472;-63
2023/12/05 01:55:00;;;;;;;29.13;17.20;;;;;;;;;;5016954;28;20026;-63
2023/12/05 01:57:26;;;;;;;26.67;16.80;;;;;;;;;;5017200;28;20049;-63
2023/12/05 01:59:52;;;;;;;31.20;17.70;;;;;;;;;;5016867;28;20025;-63
2023/12/05 02:02:17;;;;;;;28.23;16.70;;;;;;;;;;5017025;28;20480;-63
2023/12/05 02:04:43;;;;;;;28.05;17.75;;;;;;;;;;5017012;28;20038;-63
2023/12/05 02:07:08;;;;;;;31.73;17.27;;;;;;;;;;5016777;28;20026;-63
2023/12/05 02:09:35;;;;;;;33.85;19.15;;;;;;;;;;5016934;28;20362;-63
2023/12/05 02:12:00;;;;;;;30.08;18.75;;;;;;;;;;5016679;28;20025;-63
2023/12/05 02:14:26;;;;;;;32.45;17.88;;;;;;;;;;5016658;28;20380;-62
2023/12/05 02:16:57;;;;;;;31.55;18.15;;;;;;;;;;5016807;28;20108;-62
2023/12/05 02:19:22;;;;;;;;;;;;;;;;;;5016964;28;20105;-62
2023/12/05 02:21:49;;;;;;;30.55;18.52;;;;;;;;;;5016657;28;20494;-62
2023/12/05 02:24:26;;;;;;;33.05;18.27;;;;;;;;;;5016702;28;20133;-62
2023/12/05 02:27:07;;;;;;;30.92;18.60;;;;;;;;;;5016657;28;20052;-62
2023/12/05 02:29:32;;;;;;;;;;;;;;;;;;5016793;28;20476;-62
2023/12/05 02:31:58;;;;;;;32.90;18.73;;;;;;;;;;5015229;28;20004;-62
2023/12/05 02:34:23;;;;;;;34.33;19.73;;;;;;;;;;5016271;28;20312;-62
2023/12/05 02:36:53;;;;;;;28.80;18.45;;;;;;;;;;5016579;28;20022;-62
2023/12/05 02:39:21;;;;;;;32.53;19.35;;;;;;;;;;5016258;28;20030;-62
2023/12/05 02:41:51;;;;;;;35.38;19.10;;;;;;;;;;5017031;28;20028;-62
2023/12/05 02:44:18;;;;;;;29.40;18.35;;;;;;;;;;4998917;28;20026;-62
2023/12/05 02:46:44;;;;;;;30.25;18.95;;;;;;;;;;5016022;28;20029;-62
2023/12/05 02:49:11;;;;;;;33.03;19.15;;;;;;;;;;5016253;28;20032;-62
2023/12/05 02:51:37;;;;;;;30.27;18.98;;;;;;;;;;4997575;28;20030;-62
2023/12/05 02:54:06;;;;;;;31.50;18.50;;;;;;;;;;4997894;28;20088;-62
2023/12/05 02:56:32;;;;;;;29.05;18.08;;;;;;;;;;5016448;28;20029;-62
2023/12/05 02:58:59;;;;;;;31.25;17.65;;;;;;;;;;5015991;28;20022;-62
2023/12/05 03:01:24;;;;;;;29.95;19.23;;;;;;;;;;5016279;28;20026;-59
2023/12/05 03:03:49;;;;;;;28.42;17.73;;;;;;;;;;4998282;28;20045;-59
2023/12/05 03:06:15;;;;;;;31.30;17.90;;;;;;;;;;5014388;28;20030;-59
2023/12/05 03:08:40;;;;;;;28.15;17.52;;;;;;;;;;5015745;28;20034;-59
2023/12/05 03:11:06;;;;;;;28.65;17.30;;;;;;;;;;4981785;28;20058;-58
2023/12/05 03:13:31;;;;;;;29.40;18.13;;;;;;;;;;5015944;28;20044;-58
2023/12/05 03:15:57;;;;;;;30.05;17.38;;;;;;;;;;5016020;28;20018;-59
2023/12/05 03:18:23;;;;;;;26.30;16.85;;;;;;;;;;5015475;28;20026;-59
2023/12/05 03:20:49;;;;;;;28.30;17.25;;;;;;;;;;5015482;28;20041;-59
2023/12/05 03:23:17;;;;;;;31.42;17.50;;;;;;;;;;5015744;28;20030;-59
2023/12/05 03:25:42;;;;;;;30.90;18.00;;;;;;;;;;5010983;28;20101;-59
2023/12/05 03:28:08;;;;;;;34.70;19.80;;;;;;;;;;4996280;28;20408;-59
2023/12/05 03:30:33;;;;;;;29.92;18.50;;;;;;;;;;4995716;28;20085;-58
2023/12/05 03:32:59;;;;;;;31.52;18.60;;;;;;;;;;4996299;28;20027;-58
2023/12/05 03:35:24;;;;;;;28.73;18.00;;;;;;;;;;4995841;28;20034;-59
2023/12/05 03:37:50;;;;;;;31.48;18.55;;;;;;;;;;4995519;28;20152;-58
2023/12/05 03:40:15;;;;;;;30.90;17.63;;;;;;;;;;4996023;28;20042;-58
2023/12/05 03:42:40;;;;;;;30.35;18.55;;;;;;;;;;4995783;28;20041;-58
2023/12/05 03:45:06;;;;;;;29.45;17.40;;;;;;;;;;4995727;28;20046;-58
2023/12/05 03:47:31;;;;;;;27.45;16.95;;;;;;;;;;4995307;28;20069;-58
2023/12/05 03:49:57;;;;;;;27.52;17.95;;;;;;;;;;4995542;28;20033;-59
2023/12/05 03:52:22;;;;;;;28.98;17.48;;;;;;;;;;4995594;28;20085;-59
2023/12/05 03:54:48;;;;;;;30.45;17.98;;;;;;;;;;4995200;28;20070;-59
2023/12/05 03:57:13;;;;;;;28.95;16.65;;;;;;;;;;4995147;28;20027;-59
2023/12/05 03:59:38;;;;;;;30.23;17.00;;;;;;;;;;4994396;28;20400;-59
2023/12/05 04:02:04;;;;;;;25.90;16.17;;;;;;;;;;4993830;28;20080;-59
2023/12/05 04:04:29;;;;;;;30.08;17.30;;;;;;;;;;4993908;28;20444;-59
2023/12/05 04:06:55;;;;;;;27.98;17.50;;;;;;;;;;5010447;28;20042;-59
2023/12/05 04:09:20;;;;;;;28.52;16.98;;;;;;;;;;4995008;28;20031;-59
2023/12/05 04:11:45;;;;;;;27.88;17.73;;;;;;;;;;4994886;28;20041;-59
2023/12/05 04:14:11;;;;;;;30.00;17.65;;;;;;;;;;4995102;28;20062;-59
2023/12/05 04:16:36;;;;;;;31.25;17.85;;;;;;;;;;4995060;28;20105;-59
2023/12/05 04:19:02;;;;;;;25.80;16.20;;;;;;;;;;4995520;28;20018;-59
2023/12/05 04:21:27;;;;;;;26.00;17.05;;;;;;;;;;4994698;28;20495;-59
2023/12/05 04:23:52;;;;;;;27.85;17.70;;;;;;;;;;4994900;28;20036;-59
2023/12/05 04:26:19;;;;;;;30.25;17.40;;;;;;;;;;5003428;28;20129;-59
2023/12/05 04:28:45;;;;;;;26.10;17.73;;;;;;;;;;4995092;28;20065;-59
2023/12/05 04:31:11;;;;;;;30.38;17.88;;;;;;;;;;4994769;28;20058;-59
2023/12/05 04:33:41;;;;;;;31.98;19.75;;;;;;;;;;4994578;28;20081;-59
2023/12/05 04:36:07;;;;;;;30.83;18.52;;;;;;;;;;4994543;28;20063;-59
2023/12/05 04:38:36;;;;;;;32.35;20.70;;;;;;;;;;4994599;28;20038;-59
2023/12/05 04:41:01;;;;;;;34.40;20.75;;;;;;;;;;4994482;28;20022;-59
2023/12/05 04:43:27;;;;;;;29.95;19.05;;;;;;;;;;4994378;28;20041;-59
2023/12/05 04:45:52;;;;;;;32.80;20.23;;;;;;;;;;4994294;28;20034;-59
2023/12/05 04:48:18;;;;;;;30.63;20.33;;;;;;;;;;4992950;28;20033;-59
2023/12/05 04:50:44;;;;;;;30.40;18.73;;;;;;;;;;4993073;28;20062;-59
2023/12/05 04:53:09;;;;;;;31.95;20.08;;;;;;;;;;4993364;28;20022;-58
2023/12/05 04:55:35;;;;;;;29.67;19.08;;;;;;;;;;4991526;28;20121;-59
2023/12/05 04:58:00;;;;;;;34.15;19.95;;;;;;;;;;4991796;28;20038;-59
2023/12/05 05:00:25;;;;;;;36.13;21.05;;;;;;;;;;4991838;28;20042;-59
2023/12/05 05:02:51;;;;;;;36.53;21.67;;;;;;;;;;4990726;28;20052;-59
2023/12/05 05:05:16;;;;;;;54.80;33.40;;;;;;;;;;4992359;28;20034;-60
2023/12/05 05:07:41;;;;;;;35.72;21.98;;;;;;;;;;4993180;28;20022;-58
2023/12/05 05:10:07;;;;;;;37.67;23.38;;;;;;;;;;4993318;28;20019;-59
2023/12/05 05:12:33;;;;;;;44.17;23.58;;;;;;;;;;4993278;28;20034;-59
2023/12/05 05:14:58;;;;;;;259.15;174.38;;;;;;;;;;4993205;28;20034;-58
2023/12/05 05:17:24;;;;;;;67.45;37.47;;;;;;;;;;4997373;28;20416;-59
2023/12/05 05:19:49;;;;;;;54.22;29.27;;;;;;;;;;4996231;28;20034;-59
2023/12/05 05:22:15;;;;;;;55.45;35.38;;;;;;;;;;4997803;28;20038;-59
2023/12/05 05:24:40;;;;;;;50.60;27.10;;;;;;;;;;5013198;23;20046;-59
2023/12/05 05:27:06;;;;;;;55.15;29.50;;;;;;;;;;4997547;28;20034;-59
2023/12/05 05:29:31;;;;;;;74.32;37.03;;;;;;;;;;4996739;28;20453;-59
2023/12/05 05:31:57;;;;;;;85.38;42.63;;;;;;;;;;4998383;28;20081;-59
2023/12/05 05:34:22;;;;;;;80.65;47.08;;;;;;;;;;4998207;28;20030;-59
2023/12/05 05:36:47;;;;;;;40.05;22.48;;;;;;;;;;4998030;28;20477;-59
2023/12/05 05:39:13;;;;;;;65.75;37.85;;;;;;;;;;4996542;28;20014;-59
2023/12/05 05:41:38;;;;;;;36.25;23.88;;;;;;;;;;4996430;28;20497;-59
2023/12/05 05:44:03;;;;;;;55.28;32.50;;;;;;;;;;4981248;28;20373;-59
2023/12/05 05:46:29;;;;;;;38.72;24.50;;;;;;;;;;4998323;28;20034;-59
2023/12/05 05:48:54;;;;;;;27.73;18.80;;;;;;;;;;5011245;22;20066;-59
2023/12/05 05:51:20;;;;;;;29.95;22.23;;;;;;;;;;4978371;28;20469;-59
2023/12/05 05:53:45;;;;;;;28.17;18.25;;;;;;;;;;4978016;28;20034;-59
2023/12/05 05:56:15;;;;;;;28.17;18.50;;;;;;;;;;4977995;28;20572;-58
2023/12/05 05:58:40;;;;;;;33.30;21.27;;;;;;;;;;4978492;28;20121;-58
2023/12/05 06:01:06;;;;;;;34.22;21.10;;;;;;;;;;4978154;28;20171;-58
2023/12/05 06:03:31;;;;;;;38.20;20.85;;;;;;;;;;4977894;28;20081;-58
2023/12/05 06:05:58;;;;;;;37.55;20.25;;;;;;;;;;4978364;28;20533;-59
2023/12/05 06:08:23;;;;;;;39.40;22.00;;;;;;;;;;4977673;28;20043;-59
2023/12/05 06:10:49;;;;;;;35.30;21.35;;;;;;;;;;4977677;28;20027;-58
2023/12/05 06:13:14;;;;;;;32.63;19.85;;;;;;;;;;4977054;28;20039;-59
2023/12/05 06:15:40;;;;;;;30.50;18.10;;;;;;;;;;4978184;28;20078;-59
2023/12/05 06:18:05;;;;;;;28.02;18.25;;;;;;;;;;4961052;28;20031;-59
2023/12/05 06:20:31;;;;;;;29.13;19.50;;;;;;;;;;4978104;28;20086;-62
2023/12/05 06:22:56;;;;;;;32.67;21.10;;;;;;;;;;4978054;28;20031;-59
2023/12/05 06:25:22;;;;;;;23.15;13.23;;;;;;;;;;4977498;28;20118;-59
2023/12/05 06:27:47;;;;;;;24.85;15.57;;;;;;;;;;4977465;28;20094;-59
2023/12/05 06:30:21;;;;;;;29.90;18.48;;;;;;;;;;4977853;28;20027;-59
2023/12/05 06:32:46;;;;;;;30.58;19.42;;;;;;;;;;4976562;28;20019;-59
2023/12/05 06:35:12;;;;;;;28.02;18.90;;;;;;;;;;4976391;28;20034;-59
2023/12/05 06:37:37;;;;;;;28.80;18.70;;;;;;;;;;4976367;28;20055;-59
2023/12/05 06:40:03;;;;;;;25.50;17.92;;;;;;;;;;4975106;28;20505;-59
2023/12/05 06:42:28;;;;;;;28.83;19.95;;;;;;;;;;4974737;28;20359;-59
2023/12/05 06:44:54;;;;;;;27.90;18.50;;;;;;;;;;4975219;28;20038;-59
2023/12/05 06:47:19;;;;;;;29.73;19.27;;;;;;;;;;4975159;28;20035;-59
2023/12/05 06:49:44;;;;;;;34.03;20.42;;;;;;;;;;4988470;28;20457;-59
2023/12/05 06:52:11;;;;;;;32.22;18.90;;;;;;;;;;4994724;28;20504;-59
2023/12/05 06:54:37;;;;;;;31.58;20.13;;;;;;;;;;4994790;28;20101;-59
2023/12/05 06:57:02;;;;;;;29.05;18.08;;;;;;;;;;4994615;28;20118;-58
2023/12/05 06:59:28;;;;;;;30.58;19.38;;;;;;;;;;4994777;28;20041;-59
2023/12/05 07:01:53;;;;;;;31.42;21.20;;;;;;;;;;4996036;28;20038;-59
2023/12/05 07:04:18;;;;;;;36.60;22.77;;;;;;;;;;4996216;28;20062;-59
2023/12/05 07:06:44;;;;;;;69.82;47.03;;;;;;;;;;4996337;28;20369;-59
2023/12/05 07:09:09;;;;;;;44.67;26.27;;;;;;;;;;4996542;28;20096;-59
2023/12/05 07:11:34;;;;;;;55.33;30.15;;;;;;;;;;4996612;28;20109;-59
2023/12/05 07:14:00;;;;;;;50.78;28.70;;;;;;;;;;4996563;28;20030;-59
2023/12/05 07:16:25;;;;;;;51.50;30.13;;;;;;;;;;4996620;28;20033;-62
2023/12/05 07:18:50;;;;;;;50.13;30.02;;;;;;;;;;4996285;28;20034;-62
2023/12/05 07:21:16;;;;;;;46.70;28.70;;;;;;;;;;4995841;28;20030;-62
2023/12/05 07:23:42;;;;;;;46.53;30.85;;;;;;;;;;4994934;28;20038;-62
2023/12/05 07:26:07;;;;;;;46.25;32.90;;;;;;;;;;4996147;28;20030;-62
2023/12/05 07:28:33;;;;;;;39.05;27.00;;;;;;;;;;4995643;28;20033;-62
2023/12/05 07:30:58;;;;;;;36.88;25.75;;;;;;;;;;4994444;28;20030;-63
2023/12/05 07:33:24;;;;;;;60.53;43.47;;;;;;;;;;4995873;28;20100;-63
2023/12/05 07:35:49;;;;;;;55.05;38.60;;;;;;;;;;4996097;28;20026;-63
2023/12/05 07:38:15;;;;;;;49.28;33.30;;;;;;;;;;4994786;28;20480;-63
2023/12/05 07:40:40;;;;;;;60.38;38.42;;;;;;;;;;4995984;28;20030;-62
2023/12/05 07:43:05;;;;;;;42.05;31.67;;;;;;;;;;4995991;28;20109;-63
2023/12/05 07:45:31;;;;;;;35.47;23.70;;;;;;;;;;4995676;28;20030;-62
2023/12/05 07:47:56;;;;;;;32.53;20.60;;;;;;;;;;4995768;28;20034;-62
2023/12/05 07:50:22;;;;;;;32.70;20.60;;;;;;;;;;4995428;28;20050;-62
2023/12/05 07:52:48;;;;;;;37.20;23.35;;;;;;;;;;4995280;28;20058;-62
2023/12/05 07:55:13;;;;;;;33.10;22.50;;;;;;;;;;4995471;28;20034;-63
2023/12/05 07:57:38;;;;;;;37.10;24.02;;;;;;;;;;4995222;28;20038;-63
2023/12/05 08:00:06;;;;;;;45.72;29.92;;;;;;;;;;4995035;28;20105;-62
2023/12/05 08:02:37;;;;;;;39.97;26.83;;;;;;;;;;4995211;28;20396;-63
2023/12/05 08:05:03;;;;;;;120.13;61.13;;;;;;;;;;4994971;28;20038;-62
2023/12/05 08:07:28;;;;;;;59.78;40.22;;;;;;;;;;4995165;28;20034;-63
2023/12/05 08:09:55;;;;;;;55.00;37.95;;;;;;;;;;4995145;28;20042;-63
2023/12/05 08:12:20;;;;;;;51.92;31.63;;;;;;;;;;4994932;28;20528;-63
2023/12/05 08:14:45;;;;;;;59.40;40.17;;;;;;;;;;4995159;28;20030;-62
2023/12/05 08:17:11;;;;;;;47.38;29.80;;;;;;;;;;4995382;28;20045;-63
2023/12/05 08:19:37;;;;;;;57.42;38.15;;;;;;;;;;4995277;28;20034;-63
2023/12/05 08:22:02;;;;;;;37.88;24.23;;;;;;;;;;4995017;28;20109;-63
2023/12/05 08:24:27;;;;;;;34.13;22.05;;;;;;;;;;4994358;28;20041;-63
2023/12/05 08:26:53;;;;;;;37.08;22.98;;;;;;;;;;4994624;28;20030;-63
2023/12/05 08:29:21;;;;;;;34.90;21.27;;;;;;;;;;4993421;28;20492;-63
2023/12/05 08:31:46;;;;;;;36.95;22.50;;;;;;;;;;4995257;28;20023;-63
2023/12/05 08:34:12;;;;;;;37.85;23.13;;;;;;;;;;4993446;28;20516;-62
2023/12/05 08:36:38;;;;;;;33.70;20.77;;;;;;;;;;4994816;28;20037;-63
2023/12/05 08:39:03;;;;;;;38.63;22.23;;;;;;;;;;4995046;28;20030;-63
2023/12/05 08:41:29;;;;;;;35.92;23.10;;;;;;;;;;4977038;28;20425;-63
2023/12/05 08:43:54;;;;;;;33.35;20.73;;;;;;;;;;4994455;28;20050;-63
2023/12/05 08:46:19;;;;;;;36.55;20.83;;;;;;;;;;4994461;28;20029;-63
2023/12/05 08:48:45;;;;;;;31.30;20.85;;;;;;;;;;4994419;28;20392;-62
2023/12/05 08:51:10;;;;;;;37.92;21.40;;;;;;;;;;4994356;28;20483;-59
2023/12/05 08:53:36;;;;;;;35.88;21.05;;;;;;;;;;4994310;28;20030;-59
2023/12/05 08:56:04;;;;;;;34.28;20.63;;;;;;;;;;4994849;28;20046;-59
2023/12/05 08:58:29;;;;;;;33.95;22.20;;;;;;;;;;4994550;28;20096;-58
2023/12/05 09:00:54;;;;;;;35.97;22.05;;;;;;;;;;4994399;28;20026;-59
2023/12/05 09:03:20;;;;;;;34.30;21.90;;;;;;;;;;4992974;28;20034;-59
2023/12/05 09:05:45;;;;;;;37.28;22.75;;;;;;;;;;4994173;28;20033;-59
2023/12/05 09:08:10;;;;;;;39.22;23.60;;;;;;;;;;4994230;28;20480;-59
2023/12/05 09:10:36;;;;;;;38.50;23.40;;;;;;;;;;4994709;28;20117;-59
2023/12/05 09:13:01;;;;;;;40.88;24.90;;;;;;;;;;4993024;28;20030;-58
2023/12/05 09:15:26;;;;;;;38.88;23.85;;;;;;;;;;4994177;28;20038;-59
2023/12/05 09:17:52;;;;;;;34.97;21.88;;;;;;;;;;4994103;28;20454;-58
2023/12/05 09:20:19;;;;;;;38.63;22.83;;;;;;;;;;4994363;28;20034;-59
2023/12/05 09:22:44;;;;;;;36.40;21.70;;;;;;;;;;4994064;28;20034;-59
2023/12/05 09:25:10;;;;;;;40.83;23.33;;;;;;;;;;4994306;28;20030;-59
2023/12/05 09:27:36;;;;;;;38.70;23.48;;;;;;;;;;4993960;28;20030;-59
2023/12/05 09:30:02;;;;;;;41.15;24.60;;;;;;;;;;4994370;28;20198;-59
2023/12/05 09:32:27;;;;;;;42.80;24.65;;;;;;;;;;4994289;28;20358;-59
2023/12/05 09:34:52;;;;;;;232.85;121.20;;;;;;;;;;4994235;28;20014;-59
2023/12/05 09:37:18;;;;;;;326.77;171.70;;;;;;;;;;4994201;28;20034;-59
2023/12/05 09:39:43;;;;;;;432.95;234.93;;;;;;;;;;4993928;28;20453;-59
2023/12/05 09:42:10;;;;;;;665.50;424.98;;;;;;;;;;4994209;28;20050;-59
2023/12/05 09:44:36;;;;;;;150.90;84.90;;;;;;;;;;4993858;28;20369;-59
2023/12/05 09:47:04;;;;;;;54.78;30.75;;;;;;;;;;4993791;28;20045;-59
2023/12/05 09:49:30;;;;;;;45.70;25.60;;;;;;;;;;4993951;28;20042;-59
2023/12/05 09:51:55;;;;;;;45.08;24.95;;;;;;;;;;4994085;28;20041;-59
2023/12/05 09:54:22;;;;;;;44.33;25.30;;;;;;;;;;4993807;28;20027;-59
2023/12/05 09:56:48;;;;;;;47.15;26.65;;;;;;;;;;4994076;28;20027;-59
2023/12/05 09:59:15;;;;;;;40.13;24.75;;;;;;;;;;4993759;28;20031;-59
2023/12/05 10:01:42;;;;;;;43.47;23.85;;;;;;;;;;4995309;28;20026;-59
2023/12/05 10:04:10;;;;;;;37.55;21.92;;;;;;;;;;4997332;28;20061;-59
2023/12/05 10:06:36;;;;;;;36.65;21.27;;;;;;;;;;4997250;28;20042;-59
2023/12/05 10:09:02;;;;;;;46.45;24.77;;;;;;;;;;4997468;28;20030;-62
2023/12/05 10:11:29;;;;;;;53.00;25.88;;;;;;;;;;4997450;28;20480;-62
2023/12/05 10:13:54;;;;;;;54.92;27.30;;;;;;;;;;4997134;28;20022;-62
2023/12/05 10:16:22;;;;;;;51.97;26.75;;;;;;;;;;4997400;28;20034;-62
2023/12/05 10:18:48;;;;;;;57.15;30.60;;;;;;;;;;4997341;28;20117;-62
2023/12/05 10:21:13;;;;;;;57.30;34.45;;;;;;;;;;4995834;28;20064;-63
2023/12/05 10:23:38;;;;;;;58.03;36.08;;;;;;;;;;4996049;28;20473;-63
2023/12/05 10:26:04;;;;;;;48.72;30.17;;;;;;;;;;4997461;28;20037;-63
2023/12/05 10:28:29;;;;;;;39.67;24.55;;;;;;;;;;4979767;28;20046;-63
2023/12/05 10:30:55;;;;;;;38.65;23.63;;;;;;;;;;4997045;28;20030;-62
2023/12/05 10:33:23;;;;;;;43.08;23.83;;;;;;;;;;4997079;28;20041;-63
2023/12/05 10:35:49;;;;;;;49.25;27.67;;;;;;;;;;4996735;28;20030;-63
2023/12/05 10:38:17;;;;;;;49.08;25.38;;;;;;;;;;4996970;28;20029;-63
2023/12/05 10:40:48;;;;;;;46.33;23.45;;;;;;;;;;4995507;28;20034;-63
2023/12/05 10:43:14;;;;;;;41.45;22.10;;;;;;;;;;4996606;28;20034;-63
2023/12/05 10:45:39;;;;;;;32.55;19.35;;;;;;;;;;4997105;28;20081;-63
2023/12/05 10:48:04;;;;;;;28.38;17.73;;;;;;;;;;4996773;28;20090;-63
2023/12/05 10:50:30;;;;;;;31.13;18.33;;;;;;;;;;4997034;28;20038;-63
2023/12/05 10:52:56;;;;;;;27.90;16.58;;;;;;;;;;4996649;28;20029;-63
2023/12/05 10:55:24;;;;;;;30.15;17.45;;;;;;;;;;4996354;28;20386;-63
2023/12/05 10:57:50;;;;;;;28.17;15.13;;;;;;;;;;4996915;28;20030;-64
2023/12/05 11:00:16;;;;;;;28.20;16.02;;;;;;;;;;4996286;28;20041;-63
2023/12/05 11:02:42;;;;;;;42.55;28.88;;;;;;;;;;4995041;28;20034;-63
2023/12/05 11:05:08;;;;;;;35.67;19.90;;;;;;;;;;4996197;28;20495;-62
2023/12/05 11:07:34;;;;;;;29.77;18.77;;;;;;;;;;4996366;28;20169;-63
2023/12/05 11:09:59;;;;;;;35.70;19.33;;;;;;;;;;4996374;28;20066;-63
2023/12/05 11:12:25;;;;;;;63.30;30.05;;;;;;;;;;4995795;28;20029;-63
2023/12/05 11:14:52;;;;;;;64.90;32.38;;;;;;;;;;4995692;28;20104;-63
2023/12/05 11:17:19;;;;;;;56.80;30.17;;;;;;;;;;4978903;28;20049;-63
2023/12/05 11:19:52;;;;;;;48.67;26.58;;;;;;;;;;4995038;28;20077;-63
2023/12/05 11:22:29;;;;;;;42.20;24.65;;;;;;;;;;4996425;28;20030;-63
2023/12/05 11:25:18;;;;;;;41.50;24.33;;;;;;;;;;4994961;28;20433;-63
2023/12/05 11:27:51;;;;;;;48.13;27.42;;;;;;;;;;4987813;28;20133;-63
2023/12/05 11:30:28;;;;;;;52.97;28.27;;;;;;;;;;4995601;28;20061;-63
2023/12/05 11:33:01;;;;;;;43.33;26.13;;;;;;;;;;4995916;28;20027;-64
2023/12/05 11:35:31;;;;;;;40.70;26.60;;;;;;;;;;4996180;28;20037;-63
2023/12/05 11:37:59;;;;;;;57.25;39.03;;;;;;;;;;4995879;28;20030;-63
2023/12/05 11:40:25;;;;;;;62.20;44.85;;;;;;;;;;4995791;28;20030;-63
2023/12/05 11:43:09;;;;;;;44.63;26.88;;;;;;;;;;4995786;28;20106;-63
2023/12/05 11:45:37;;;;;;;36.17;22.40;;;;;;;;;;4995689;28;20034;-63
2023/12/05 11:48:03;;;;;;;32.85;20.58;;;;;;;;;;4995840;28;20038;-63
2023/12/05 11:50:49;;;;;;;45.55;25.88;;;;;;;;;;4995201;28;20397;-63
2023/12/05 11:53:17;;;;;;;51.63;29.13;;;;;;;;;;4995532;28;20465;-63
2023/12/05 11:55:47;;;;;;;41.83;25.75;;;;;;;;;;4995289;28;20035;-62
2023/12/05 11:58:26;;;;;;;37.03;22.67;;;;;;;;;;4995553;28;20034;-63
2023/12/05 12:00:59;;;;;;;36.15;21.85;;;;;;;;;;4995683;28;20031;-63
2023/12/05 12:03:26;;;;;;;44.05;28.05;;;;;;;;;;4995638;28;20037;-63
2023/12/05 12:06:00;;;;;;;36.28;21.85;;;;;;;;;;4995045;28;20038;-63
2023/12/05 12:08:25;;;;;;;29.80;18.33;;;;;;;;;;4994979;28;20036;-63
2023/12/05 12:10:51;;;;;;;29.40;17.77;;;;;;;;;;4994930;28;20030;-62
2023/12/05 12:13:17;;;;;;;29.20;17.70;;;;;;;;;;4993927;28;20490;-62
2023/12/05 12:15:42;;;;;;;33.03;20.05;;;;;;;;;;4977832;28;20539;-62
2023/12/05 12:18:08;;;;;;;33.90;20.35;;;;;;;;;;4994856;28;20454;-62
2023/12/05 12:20:35;;;;;;;28.88;18.25;;;;;;;;;;4977370;28;20488;-62
2023/12/05 12:23:01;;;;;;;35.22;20.48;;;;;;;;;;4995001;28;20018;-62
2023/12/05 12:25:26;;;;;;;36.28;20.15;;;;;;;;;;4994495;28;20037;-63
2023/12/05 12:27:52;;;;;;;32.53;19.13;;;;;;;;;;4994666;28;20041;-63
2023/12/05 12:30:18;;;;;;;33.70;18.38;;;;;;;;;;4994929;28;20034;-63
2023/12/05 12:32:53;;;;;;;32.83;18.67;;;;;;;;;;4994001;28;20105;-63
2023/12/05 12:35:22;;;;;;;30.83;18.45;;;;;;;;;;4977240;28;20034;-62
2023/12/05 12:37:48;;;;;;;33.67;18.58;;;;;;;;;;4994527;28;20022;-62
2023/12/05 12:40:14;;;;;;;27.95;15.75;;;;;;;;;;4995033;28;20034;-62
2023/12/05 12:42:41;;;;;;;23.65;14.15;;;;;;;;;;4994490;28;20035;-63
2023/12/05 12:45:07;;;;;;;22.85;14.52;;;;;;;;;;4994862;28;20537;-63
2023/12/05 12:47:33;;;;;;;23.27;14.88;;;;;;;;;;4994602;28;20113;-63
2023/12/05 12:50:00;;;;;;;24.08;15.60;;;;;;;;;;4994298;28;20125;-62
2023/12/05 12:52:25;;;;;;;23.23;14.93;;;;;;;;;;4994392;28;20073;-62
2023/12/05 12:54:51;;;;;;;30.30;17.67;;;;;;;;;;4994759;28;20022;-62
2023/12/05 12:57:20;;;;;;;70.53;47.45;;;;;;;;;;4994846;28;20030;-63
2023/12/05 12:59:47;;;;;;;246.87;161.90;;;;;;;;;;4994364;28;20473;-63
2023/12/05 13:02:13;;;;;;;73.10;47.17;;;;;;;;;;4994220;28;20031;-62
2023/12/05 13:04:38;;;;;;;49.05;28.42;;;;;;;;;;4994265;28;20081;-62
2023/12/05 13:07:04;;;;;;;37.25;22.17;;;;;;;;;;4994482;28;20027;-62
2023/12/05 13:09:29;;;;;;;38.22;22.77;;;;;;;;;;4994202;28;20076;-62
2023/12/05 13:11:56;;;;;;;44.55;27.58;;;;;;;;;;4994460;28;20142;-62
2023/12/05 13:14:22;;;;;;;33.20;22.45;;;;;;;;;;4994422;28;20042;-62
2023/12/05 13:16:47;;;;;;;25.23;15.60;;;;;;;;;;4994206;28;20034;-62
2023/12/05 13:19:35;;;;;;;25.63;14.73;;;;;;;;;;4994381;28;20036;-62
2023/12/05 13:22:00;;;;;;;23.73;15.02;;;;;;;;;;4994637;28;20035;-63
2023/12/05 13:24:26;;;;;;;25.45;14.27;;;;;;;;;;4994043;28;20084;-62
2023/12/05 13:26:52;;;;;;;31.25;19.48;;;;;;;;;;4994022;28;20415;-62
2023/12/05 13:29:18;;;;;;;31.65;18.02;;;;;;;;;;4994209;28;20030;-62
2023/12/05 13:31:44;;;;;;;34.13;18.52;;;;;;;;;;4976626;28;20118;-62
2023/12/05 13:34:10;;;;;;;33.40;19.60;;;;;;;;;;4976899;28;20065;-63
2023/12/05 13:36:37;;;;;;;38.53;21.48;;;;;;;;;;4994235;28;20504;-63
2023/12/05 13:39:02;;;;;;;38.83;21.92;;;;;;;;;;4996836;28;20081;-62
2023/12/05 13:41:28;;;;;;;33.05;19.50;;;;;;;;;;4996834;28;20144;-62
2023/12/05 13:43:54;;;;;;;36.28;20.95;;;;;;;;;;4996898;28;20071;-62
2023/12/05 13:46:21;;;;;;;41.10;23.90;;;;;;;;;;4979190;28;20022;-63
2023/12/05 13:48:46;;;;;;;40.05;23.38;;;;;;;;;;4996500;28;20042;-63
2023/12/05 13:51:12;;;;;;;63.78;38.08;;;;;;;;;;4995430;28;20560;-58
2023/12/05 13:53:37;;;;;;;65.85;36.90;;;;;;;;;;4997138;28;20031;-59
2023/12/05 13:56:03;;;;;;;76.30;43.78;;;;;;;;;;4996431;28;20030;-58
2023/12/05 13:58:28;;;;;;;81.05;47.13;;;;;;;;;;4996072;28;20073;-59
2023/12/05 14:00:54;;;;;;;67.10;36.20;;;;;;;;;;4997098;28;20496;-59
2023/12/05 14:03:19;;;;;;;82.63;40.42;;;;;;;;;;4997141;28;20346;-59
2023/12/05 14:05:44;;;;;;;106.57;47.00;;;;;;;;;;4997435;28;20429;-59
2023/12/05 14:08:10;;;;;;;114.20;52.67;;;;;;;;;;4996684;28;20361;-59
2023/12/05 14:10:37;;;;;;;133.85;64.82;;;;;;;;;;4997549;28;20033;-59